createdAt,value
2023-02-23T00:02:09.339Z,100.00
2023-02-23T00:04:38.154Z,100.00
2023-02-23T00:07:08.345Z,100.00
2023-02-23T00:09:36.602Z,100.00
2023-02-23T00:12:08.748Z,100.00
2023-02-23T00:14:38.782Z,100.00
2023-02-23T00:17:14.313Z,100.00
2023-02-23T00:19:43.789Z,100.00
2023-02-23T00:22:13.790Z,100.00
2023-02-23T00:24:42.793Z,100.00
2023-02-23T00:27:17.602Z,100.00
2023-02-23T00:29:49.379Z,100.00
2023-02-23T00:32:19.988Z,100.00
2023-02-23T00:34:49.750Z,100.00
2023-02-23T00:37:19.974Z,100.00
2023-02-23T00:39:49.653Z,100.00
2023-02-23T00:42:17.747Z,100.00
2023-02-23T00:44:47.669Z,100.00
2023-02-23T00:47:15.754Z,100.00
2023-02-23T00:49:45.132Z,100.00
2023-02-23T00:52:14.888Z,100.00
2023-02-23T00:54:44.587Z,100.00
2023-02-23T00:57:12.715Z,100.00
2023-02-23T00:59:40.807Z,100.00
2023-02-23T01:02:09.097Z,100.00
2023-02-23T01:04:37.253Z,100.00
2023-02-23T01:07:06.603Z,100.00
2023-02-23T01:09:35.285Z,100.00
2023-02-23T01:12:08.151Z,100.00
2023-02-23T01:14:38.408Z,100.00
2023-02-23T01:17:07.593Z,100.00
2023-02-23T01:19:37.570Z,100.00
2023-02-23T01:22:05.918Z,100.00
2023-02-23T01:24:34.105Z,100.00
2023-02-23T01:27:07.065Z,100.00
2023-02-23T01:29:35.456Z,100.00
2023-02-23T01:32:05.058Z,100.00
2023-02-23T01:34:33.365Z,100.00
2023-02-23T01:37:01.468Z,100.00
2023-02-23T01:39:30.260Z,100.00
2023-02-23T01:41:58.596Z,100.00
2023-02-23T01:45:03.986Z,100.00
2023-02-23T01:47:35.225Z,100.00
2023-02-23T01:50:05.144Z,100.00
2023-02-23T01:52:34.056Z,100.00
2023-02-23T01:55:02.289Z,100.00
2023-02-23T01:57:30.424Z,100.00
2023-02-23T01:59:59.648Z,100.00
2023-02-23T02:02:33.963Z,100.00
2023-02-23T02:05:06.553Z,100.00
2023-02-23T02:07:36.342Z,100.00
2023-02-23T02:10:34.114Z,100.00
2023-02-23T02:13:06.018Z,100.00
2023-02-23T02:15:53.830Z,100.00
2023-02-23T02:18:38.263Z,100.00
2023-02-23T02:21:54.255Z,100.00
2023-02-23T02:24:54.030Z,100.00
2023-02-23T02:27:43.511Z,100.00
2023-02-23T02:30:34.479Z,100.00
2023-02-23T02:33:34.928Z,100.00
2023-02-23T02:36:23.948Z,100.00
2023-02-23T02:39:07.896Z,100.00
2023-02-23T02:41:51.300Z,100.00
2023-02-23T02:44:28.040Z,100.00
2023-02-23T02:47:01.918Z,100.00
2023-02-23T02:49:34.093Z,100.00
2023-02-23T02:52:08.191Z,100.00
2023-02-23T02:54:41.753Z,100.00
2023-02-23T02:57:12.392Z,100.00
2023-02-23T03:00:04.352Z,100.00
2023-02-23T03:02:52.674Z,100.00
2023-02-23T03:05:41.108Z,100.00
2023-02-23T03:08:35.076Z,100.00
2023-02-23T03:11:25.290Z,100.00
2023-02-23T03:14:24.712Z,100.00
2023-02-23T03:17:21.828Z,100.00
2023-02-23T03:20:15.925Z,100.00
2023-02-23T03:23:10.511Z,100.00
2023-02-23T03:26:07.862Z,100.00
2023-02-23T03:29:01.544Z,100.00
2023-02-23T03:31:55.926Z,100.00
2023-02-23T03:34:47.523Z,100.00
2023-02-23T03:37:38.014Z,100.00
2023-02-23T03:40:32.625Z,100.00
2023-02-23T03:43:24.611Z,100.00
2023-02-23T03:46:15.000Z,100.00
2023-02-23T03:49:04.670Z,100.00
2023-02-23T03:51:54.932Z,100.00
2023-02-23T03:54:46.771Z,100.00
2023-02-23T03:57:35.123Z,100.00
2023-02-23T04:00:23.932Z,100.00
2023-02-23T04:03:15.872Z,100.00
2023-02-23T04:06:03.807Z,100.00
2023-02-23T04:08:53.216Z,100.00
2023-02-23T04:11:46.190Z,100.00
2023-02-23T04:14:19.431Z,100.00
2023-02-23T04:16:48.085Z,100.00
2023-02-23T04:19:17.837Z,100.00
2023-02-23T04:21:45.929Z,100.00
2023-02-23T04:24:13.999Z,100.00
2023-02-23T04:26:42.468Z,100.00
2023-02-23T04:29:12.690Z,100.00
2023-02-23T04:31:41.802Z,100.00
2023-02-23T04:34:10.015Z,100.00
2023-02-23T04:36:39.598Z,100.00
2023-02-23T04:39:07.652Z,100.00
2023-02-23T04:41:35.815Z,100.00
2023-02-23T04:44:04.157Z,100.00
2023-02-23T04:46:32.425Z,100.00
2023-02-23T04:49:00.601Z,100.00
2023-02-23T04:51:32.337Z,100.00
2023-02-23T04:54:02.722Z,100.00
2023-02-23T04:56:31.121Z,100.00
2023-02-23T04:58:59.245Z,100.00
2023-02-23T05:01:28.811Z,100.00
2023-02-23T05:03:56.953Z,100.00
2023-02-23T05:06:24.985Z,100.00
2023-02-23T05:08:53.056Z,100.00
2023-02-23T05:11:22.961Z,100.00
2023-02-23T05:13:51.260Z,100.00
2023-02-23T05:16:19.359Z,100.00
2023-02-23T05:18:48.258Z,100.00
2023-02-23T05:21:16.836Z,100.00
2023-02-23T05:23:45.289Z,100.00
2023-02-23T05:26:14.714Z,100.00
2023-02-23T05:28:44.445Z,100.00
2023-02-23T05:31:13.296Z,100.00
2023-02-23T05:33:42.817Z,100.00
2023-02-23T05:36:12.195Z,100.00
2023-02-23T05:38:42.049Z,100.00
2023-02-23T05:41:12.713Z,100.00
2023-02-23T05:43:41.493Z,100.00
2023-02-23T05:46:12.969Z,100.00
2023-02-23T05:48:41.532Z,100.00
2023-02-23T05:51:11.952Z,100.00
2023-02-23T05:53:40.839Z,100.00
2023-02-23T05:56:14.580Z,100.00
2023-02-23T05:58:42.755Z,100.00
2023-02-23T06:01:12.529Z,100.00
2023-02-23T06:03:40.917Z,100.00
2023-02-23T06:06:09.287Z,100.00
2023-02-23T06:08:37.909Z,100.00
2023-02-23T06:11:06.461Z,100.00
2023-02-23T06:13:35.141Z,100.00
2023-02-23T06:16:03.989Z,100.00
2023-02-23T06:18:33.993Z,100.00
2023-02-23T06:21:04.019Z,100.00
2023-02-23T06:23:34.116Z,100.00
2023-02-23T06:26:02.330Z,100.00
2023-02-23T06:28:30.993Z,100.00
2023-02-23T06:30:59.207Z,100.00
2023-02-23T06:33:27.397Z,100.00
2023-02-23T06:35:57.540Z,100.00
2023-02-23T06:38:25.647Z,100.00
2023-02-23T06:40:53.708Z,100.00
2023-02-23T06:43:23.342Z,100.00
2023-02-23T06:45:51.974Z,100.00
2023-02-23T06:48:20.054Z,100.00
2023-02-23T06:50:48.125Z,100.00
2023-02-23T06:53:18.447Z,100.00
2023-02-23T06:55:46.562Z,100.00
2023-02-23T06:58:14.716Z,100.00
2023-02-23T07:00:43.779Z,100.00
2023-02-23T07:03:12.341Z,100.00
2023-02-23T07:05:41.074Z,100.00
2023-02-23T07:08:09.418Z,100.00
2023-02-23T07:10:38.900Z,100.00
2023-02-23T07:13:07.030Z,100.00
2023-02-23T07:15:36.572Z,100.00
2023-02-23T07:18:04.950Z,100.00
2023-02-23T07:20:34.110Z,100.00
2023-02-23T07:23:02.286Z,100.00
2023-02-23T07:25:31.224Z,100.00
2023-02-23T07:28:00.714Z,100.00
2023-02-23T07:30:28.923Z,100.00
2023-02-23T07:32:57.049Z,100.00
2023-02-23T07:35:25.192Z,100.00
2023-02-23T07:37:54.572Z,100.00
2023-02-23T07:40:22.738Z,100.00
2023-02-23T07:42:52.163Z,100.00
2023-02-23T07:45:25.022Z,100.00
2023-02-23T07:47:53.197Z,100.00
2023-02-23T07:50:21.444Z,100.00
2023-02-23T07:52:49.696Z,100.00
2023-02-23T07:55:17.840Z,100.00
2023-02-23T07:57:46.109Z,100.00
2023-02-23T08:00:15.269Z,100.00
2023-02-23T08:02:45.787Z,100.00
2023-02-23T08:05:14.087Z,100.00
2023-02-23T08:07:42.264Z,100.00
2023-02-23T08:10:11.762Z,100.00
2023-02-23T08:12:39.982Z,100.00
2023-02-23T08:15:09.074Z,100.00
2023-02-23T08:17:37.362Z,100.00
2023-02-23T08:20:11.264Z,100.00
2023-02-23T08:22:48.902Z,100.00
2023-02-23T08:25:18.241Z,100.00
2023-02-23T08:27:46.863Z,100.00
2023-02-23T08:30:16.835Z,100.00
2023-02-23T08:32:45.066Z,100.00
2023-02-23T08:35:15.127Z,100.00
2023-02-23T08:37:43.287Z,100.00
2023-02-23T08:40:15.509Z,100.00
2023-02-23T08:42:43.726Z,100.00
2023-02-23T08:45:13.481Z,100.00
2023-02-23T08:47:41.739Z,100.00
2023-02-23T08:50:11.990Z,100.00
2023-02-23T08:52:42.582Z,100.00
2023-02-23T08:55:14.137Z,100.00
2023-02-23T08:57:42.395Z,100.00
2023-02-23T09:00:16.788Z,100.00
2023-02-23T09:02:48.155Z,100.00
2023-02-23T09:05:17.257Z,100.00
2023-02-23T09:07:49.228Z,100.00
2023-02-23T09:10:24.918Z,100.00
2023-02-23T09:12:53.133Z,100.00
2023-02-23T09:15:21.524Z,100.00
2023-02-23T09:17:49.695Z,100.00
2023-02-23T09:20:18.764Z,100.00
2023-02-23T09:22:49.760Z,100.00
2023-02-23T09:25:19.233Z,100.00
2023-02-23T09:27:47.500Z,100.00
2023-02-23T09:30:17.869Z,100.00
2023-02-23T09:32:46.514Z,100.00
2023-02-23T09:35:18.028Z,100.00
2023-02-23T09:37:47.431Z,100.00
2023-02-23T09:40:18.946Z,100.00
2023-02-23T09:42:59.206Z,100.00
2023-02-23T09:45:34.661Z,100.00
2023-02-23T09:48:12.792Z,100.00
2023-02-23T09:50:46.237Z,100.00
2023-02-23T09:53:25.484Z,100.00
2023-02-23T09:55:57.572Z,100.00
2023-02-23T09:58:27.639Z,100.00
2023-02-23T10:01:24.008Z,100.00
2023-02-23T10:03:58.288Z,100.00
2023-02-23T10:06:27.437Z,100.00
2023-02-23T10:09:10.050Z,100.00
2023-02-23T10:11:46.818Z,100.00
2023-02-23T10:14:41.949Z,100.00
2023-02-23T10:17:22.329Z,100.00
2023-02-23T10:19:57.455Z,100.00
2023-02-23T10:22:27.018Z,100.00
2023-02-23T10:24:58.136Z,100.00
2023-02-23T10:27:33.794Z,99.53
2023-02-23T10:30:04.978Z,99.94
2023-02-23T10:32:41.651Z,98.52
2023-02-23T10:35:13.492Z,98.71
2023-02-23T10:37:41.696Z,96.83
2023-02-23T10:40:16.559Z,98.15
2023-02-23T10:42:46.164Z,97.79
2023-02-23T10:45:22.757Z,97.38
2023-02-23T10:47:58.858Z,96.71
2023-02-23T10:50:29.145Z,93.34
2023-02-23T10:53:01.495Z,93.09
2023-02-23T10:55:31.804Z,92.92
2023-02-23T10:58:10.859Z,90.66
2023-02-23T11:00:41.087Z,89.41
2023-02-23T11:03:20.413Z,88.98
2023-02-23T11:05:53.212Z,86.35
2023-02-23T11:08:29.236Z,84.91
2023-02-23T11:11:17.639Z,83.13
2023-02-23T11:13:48.740Z,82.74
2023-02-23T11:16:19.803Z,82.69
2023-02-23T11:18:55.444Z,82.23
2023-02-23T11:21:26.662Z,81.67
2023-02-23T11:23:57.410Z,81.75
2023-02-23T11:26:38.506Z,80.54
2023-02-23T11:29:17.675Z,79.97
2023-02-23T11:31:51.302Z,81.20
2023-02-23T11:34:29.488Z,80.97
2023-02-23T11:37:04.726Z,82.74
2023-02-23T11:39:32.885Z,80.57
2023-02-23T11:42:20.139Z,81.50
2023-02-23T11:45:03.294Z,83.50
2023-02-23T11:47:33.482Z,82.66
2023-02-23T11:50:02.448Z,81.69
2023-02-23T11:52:31.441Z,80.95
2023-02-23T11:55:01.733Z,81.75
2023-02-23T11:57:33.714Z,82.31
2023-02-23T12:00:13.094Z,81.81
2023-02-23T12:02:51.007Z,84.06
2023-02-23T12:05:23.403Z,85.15
2023-02-23T12:07:58.943Z,85.06
2023-02-23T12:10:32.148Z,84.18
2023-02-23T12:13:09.773Z,85.93
2023-02-23T12:15:48.024Z,84.11
2023-02-23T12:18:28.241Z,84.18
2023-02-23T12:21:02.749Z,84.13
2023-02-23T12:23:34.923Z,86.04
2023-02-23T12:26:07.968Z,86.72
2023-02-23T12:28:41.839Z,85.52
2023-02-23T12:31:24.661Z,86.26
2023-02-23T12:33:59.994Z,86.87
2023-02-23T12:36:38.571Z,86.28
2023-02-23T12:39:18.007Z,86.04
2023-02-23T12:41:52.588Z,86.58
2023-02-23T12:44:35.482Z,87.00
2023-02-23T12:47:10.343Z,86.33
2023-02-23T12:49:45.498Z,88.03
2023-02-23T12:52:20.207Z,86.21
2023-02-23T12:54:49.214Z,86.09
2023-02-23T12:57:28.481Z,86.83
2023-02-23T13:00:31.658Z,87.60
2023-02-23T13:03:23.981Z,86.14
2023-02-23T13:05:57.801Z,86.27
2023-02-23T13:08:35.781Z,86.89
2023-02-23T13:11:12.888Z,86.40
2023-02-23T13:13:47.943Z,85.21
2023-02-23T13:16:25.253Z,87.18
2023-02-23T13:19:12.073Z,87.36
2023-02-23T13:21:45.912Z,89.14
2023-02-23T13:24:19.115Z,88.45
2023-02-23T13:26:54.077Z,88.81
2023-02-23T13:29:31.859Z,89.12
2023-02-23T13:32:01.933Z,88.76
2023-02-23T13:34:35.782Z,88.75
2023-02-23T13:37:07.445Z,88.99
2023-02-23T13:40:00.748Z,89.03
2023-02-23T13:42:44.394Z,88.64
2023-02-23T13:45:33.355Z,88.43
2023-02-23T13:48:07.844Z,88.48
2023-02-23T13:50:46.642Z,88.56
2023-02-23T13:53:34.890Z,88.36
2023-02-23T13:56:08.444Z,88.71
2023-02-23T13:58:37.171Z,89.35
2023-02-23T14:01:10.173Z,87.84
2023-02-23T14:03:44.897Z,87.60
2023-02-23T14:06:19.065Z,88.18
2023-02-23T14:08:54.284Z,88.09
2023-02-23T14:11:42.519Z,89.62
2023-02-23T14:14:13.750Z,88.64
2023-02-23T14:16:42.110Z,86.99
2023-02-23T14:19:36.776Z,87.01
2023-02-23T14:22:11.122Z,87.11
2023-02-23T14:24:39.361Z,87.75
2023-02-23T14:27:41.095Z,88.29
2023-02-23T14:30:44.505Z,88.40
2023-02-23T14:33:38.164Z,88.57
2023-02-23T14:36:41.622Z,88.73
2023-02-23T14:39:19.453Z,88.71
2023-02-23T14:41:51.976Z,88.97
2023-02-23T14:44:29.688Z,89.02
2023-02-23T14:47:03.670Z,89.63
2023-02-23T14:49:36.939Z,89.65
2023-02-23T14:52:10.934Z,90.29
2023-02-23T14:54:41.849Z,90.07
2023-02-23T14:57:20.241Z,89.12
2023-02-23T14:59:59.445Z,88.88
2023-02-23T15:02:29.734Z,88.82
2023-02-23T15:04:58.464Z,89.07
2023-02-23T15:07:32.761Z,89.94
2023-02-23T15:10:04.887Z,89.77
2023-02-23T15:12:38.143Z,90.12
2023-02-23T15:15:15.463Z,92.25
2023-02-23T15:17:46.805Z,92.02
2023-02-23T15:20:18.767Z,90.45
2023-02-23T15:22:52.353Z,89.11
2023-02-23T15:25:27.480Z,88.71
2023-02-23T15:27:56.154Z,88.40
2023-02-23T15:30:27.822Z,90.04
2023-02-23T15:33:04.526Z,90.58
2023-02-23T15:35:38.383Z,89.62
2023-02-23T15:38:18.221Z,86.40
2023-02-23T15:40:59.369Z,87.20
2023-02-23T15:43:29.986Z,87.56
2023-02-23T15:46:04.365Z,87.75
2023-02-23T15:48:45.943Z,87.74
2023-02-23T15:51:25.546Z,88.08
2023-02-23T15:53:55.408Z,89.80
2023-02-23T15:56:28.122Z,90.66
2023-02-23T15:58:58.932Z,90.44
2023-02-23T16:01:30.581Z,89.45
2023-02-23T16:04:07.313Z,89.39
2023-02-23T16:06:38.530Z,89.63
2023-02-23T16:09:20.976Z,91.03
2023-02-23T16:11:53.813Z,91.71
2023-02-23T16:14:24.475Z,92.52
2023-02-23T16:17:10.483Z,92.89
2023-02-23T16:19:42.039Z,93.93
2023-02-23T16:22:22.442Z,94.36
2023-02-23T16:24:59.783Z,95.09
2023-02-23T16:27:31.395Z,95.21
2023-02-23T16:30:07.057Z,96.16
2023-02-23T16:32:38.851Z,97.48
2023-02-23T16:35:16.567Z,98.03
2023-02-23T16:37:57.156Z,98.99
2023-02-23T16:40:25.647Z,100.00
2023-02-23T16:42:59.839Z,100.00
2023-02-23T16:45:29.913Z,100.00
2023-02-23T16:48:02.721Z,100.00
2023-02-23T16:50:33.853Z,100.00
2023-02-23T16:53:04.299Z,100.00
2023-02-23T16:55:40.449Z,100.00
2023-02-23T16:58:17.330Z,100.00
2023-02-23T17:00:46.316Z,100.00
2023-02-23T17:03:20.451Z,100.00
2023-02-23T17:05:50.453Z,100.00
2023-02-23T17:08:19.318Z,100.00
2023-02-23T17:10:50.966Z,100.00
2023-02-23T17:13:22.777Z,100.00
2023-02-23T17:15:56.763Z,100.00
2023-02-23T17:18:27.417Z,100.00
2023-02-23T17:20:58.898Z,100.00
2023-02-23T17:23:38.632Z,100.00
2023-02-23T17:26:09.811Z,100.00
2023-02-23T17:28:43.039Z,100.00
2023-02-23T17:31:12.223Z,100.00
2023-02-23T17:33:41.527Z,100.00
2023-02-23T17:36:12.635Z,100.00
2023-02-23T17:38:44.504Z,100.00
2023-02-23T17:41:17.602Z,100.00
2023-02-23T17:43:48.490Z,100.00
2023-02-23T17:46:19.870Z,100.00
2023-02-23T17:48:49.213Z,100.00
2023-02-23T17:51:20.437Z,100.00
2023-02-23T17:53:50.744Z,100.00
2023-02-23T17:56:20.715Z,100.00
2023-02-23T17:58:52.039Z,100.00
2023-02-23T18:01:21.819Z,100.00
2023-02-23T18:03:51.641Z,100.00
2023-02-23T18:06:21.167Z,100.00
2023-02-23T18:08:52.276Z,100.00
2023-02-23T18:11:24.343Z,100.00
2023-02-23T18:13:55.460Z,100.00
2023-02-23T18:16:25.059Z,100.00
2023-02-23T18:18:58.460Z,100.00
2023-02-23T18:21:29.050Z,100.00
2023-02-23T18:23:58.797Z,100.00
2023-02-23T18:26:27.815Z,100.00
2023-02-23T18:28:58.847Z,100.00
2023-02-23T18:31:30.266Z,100.00
2023-02-23T18:34:02.031Z,100.00
2023-02-23T18:36:32.994Z,100.00
2023-02-23T18:39:02.875Z,100.00
2023-02-23T18:41:32.311Z,100.00
2023-02-23T18:44:05.186Z,100.00
2023-02-23T18:46:38.272Z,100.00
2023-02-23T18:49:08.002Z,100.00
2023-02-23T18:51:40.068Z,100.00
2023-02-23T18:54:21.559Z,100.00
2023-02-23T18:56:51.944Z,100.00
2023-02-23T18:59:26.459Z,100.00
2023-02-23T19:01:57.744Z,100.00
2023-02-23T19:04:27.584Z,100.00
2023-02-23T19:06:57.214Z,100.00
2023-02-23T19:09:27.163Z,100.00
2023-02-23T19:11:57.029Z,100.00
2023-02-23T19:14:47.774Z,100.00
2023-02-23T19:17:18.141Z,100.00
2023-02-23T19:19:50.957Z,100.00
2023-02-23T19:22:20.618Z,100.00
2023-02-23T19:24:52.589Z,100.00
2023-02-23T19:27:22.281Z,100.00
2023-02-23T19:29:55.428Z,100.00
2023-02-23T19:32:25.476Z,100.00
2023-02-23T19:34:55.024Z,100.00
2023-02-23T19:37:25.636Z,100.00
2023-02-23T19:39:56.147Z,100.00
2023-02-23T19:42:26.807Z,100.00
2023-02-23T19:44:59.546Z,100.00
2023-02-23T19:47:31.231Z,100.00
2023-02-23T19:50:02.151Z,100.00
2023-02-23T19:52:32.953Z,100.00
2023-02-23T19:55:03.637Z,100.00
2023-02-23T19:57:35.728Z,100.00
2023-02-23T20:00:12.665Z,100.00
2023-02-23T20:02:43.864Z,100.00
2023-02-23T20:05:15.870Z,100.00
2023-02-23T20:07:47.753Z,100.00
2023-02-23T20:10:26.204Z,100.00
2023-02-23T20:12:59.031Z,100.00
2023-02-23T20:15:30.506Z,100.00
2023-02-23T20:18:03.040Z,100.00
2023-02-23T20:20:35.303Z,100.00
2023-02-23T20:23:08.239Z,100.00
2023-02-23T20:25:45.687Z,100.00
2023-02-23T20:28:16.676Z,100.00
2023-02-23T20:30:51.133Z,100.00
2023-02-23T20:33:23.983Z,100.00
2023-02-23T20:35:55.047Z,100.00
2023-02-23T20:38:25.598Z,100.00
2023-02-23T20:40:55.548Z,100.00
2023-02-23T20:43:25.479Z,100.00
2023-02-23T20:46:00.976Z,100.00
2023-02-23T20:48:32.607Z,100.00
2023-02-23T20:51:04.923Z,100.00
2023-02-23T20:53:35.056Z,100.00
2023-02-23T20:56:07.452Z,100.00
2023-02-23T20:58:38.059Z,100.00
2023-02-23T21:01:15.475Z,100.00
2023-02-23T21:03:44.927Z,100.00
2023-02-23T21:06:16.605Z,100.00
2023-02-23T21:08:56.147Z,100.00
2023-02-23T21:11:27.287Z,100.00
2023-02-23T21:13:57.313Z,100.00
2023-02-23T21:16:32.807Z,100.00
2023-02-23T21:19:08.590Z,100.00
2023-02-23T21:21:41.302Z,100.00
2023-02-23T21:24:11.605Z,100.00
2023-02-23T21:26:40.709Z,100.00
2023-02-23T21:29:16.566Z,100.00
2023-02-23T21:31:49.334Z,100.00
2023-02-23T21:34:22.519Z,100.00
2023-02-23T21:36:54.685Z,100.00
2023-02-23T21:39:23.154Z,100.00
2023-02-23T21:41:52.214Z,100.00
2023-02-23T21:44:21.038Z,100.00
2023-02-23T21:46:51.812Z,100.00
2023-02-23T21:49:21.035Z,100.00
2023-02-23T21:51:49.919Z,100.00
2023-02-23T21:54:19.402Z,100.00
2023-02-23T21:56:48.053Z,100.00
2023-02-23T21:59:17.007Z,100.00
2023-02-23T22:01:47.492Z,100.00
2023-02-23T22:04:17.201Z,100.00
2023-02-23T22:06:48.228Z,100.00
2023-02-23T22:09:16.664Z,100.00
2023-02-23T22:11:46.790Z,100.00
2023-02-23T22:14:16.801Z,100.00
2023-02-23T22:16:45.366Z,100.00
2023-02-23T22:19:14.346Z,100.00
2023-02-23T22:21:45.568Z,100.00
2023-02-23T22:24:15.657Z,100.00
2023-02-23T22:26:50.462Z,100.00
2023-02-23T22:29:18.863Z,100.00
2023-02-23T22:31:47.280Z,100.00
2023-02-23T22:34:16.018Z,100.00
2023-02-23T22:36:46.617Z,100.00
2023-02-23T22:39:18.957Z,100.00
2023-02-23T22:41:48.381Z,100.00
2023-02-23T22:44:19.158Z,100.00
2023-02-23T22:46:49.645Z,100.00
2023-02-23T22:49:20.164Z,100.00
2023-02-23T22:51:50.572Z,100.00
2023-02-23T22:54:20.496Z,100.00
2023-02-23T22:56:49.051Z,100.00
2023-02-23T22:59:17.766Z,100.00
2023-02-23T23:01:47.530Z,100.00
2023-02-23T23:04:16.212Z,100.00
2023-02-23T23:06:44.940Z,100.00
2023-02-23T23:09:16.598Z,100.00
2023-02-23T23:11:44.984Z,100.00
2023-02-23T23:14:13.557Z,100.00
2023-02-23T23:16:48.160Z,100.00
2023-02-23T23:19:18.158Z,100.00
2023-02-23T23:21:46.564Z,100.00
2023-02-23T23:24:16.434Z,100.00
2023-02-23T23:26:45.331Z,100.00
2023-02-23T23:29:15.779Z,100.00
2023-02-23T23:31:46.571Z,100.00
2023-02-23T23:34:17.243Z,100.00
2023-02-23T23:36:49.156Z,100.00
2023-02-23T23:39:20.439Z,100.00
2023-02-23T23:41:49.425Z,100.00
2023-02-23T23:44:18.500Z,100.00
2023-02-23T23:46:47.453Z,100.00
2023-02-23T23:49:17.817Z,100.00
2023-02-23T23:51:50.064Z,100.00
2023-02-23T23:54:22.306Z,100.00
2023-02-23T23:56:51.375Z,100.00
2023-02-23T23:59:21.404Z,100.00
